Portada
METAR-TAF:

METAR-TAF

Aeroports :

Bélgorod, Rússia

latitud: 50-38-36N, longitud: 036-35-24E, altitud: 224 m

Observació

L'informe es va fer fa 43 minuts, a les 03:30 UTC
Vent 2 kt del Est/Nord-Est
Temperatura 18°C
Humitat 73%
Pressió 1018 hPa
Visibilitat 10 km o més
sense núvols per sota de 1500 mi sense presència de cumulonimbus.

METAR: UUOB 220330Z 06001MPS CAVOK 18/13 Q1018 R11/010060 NOSIG

Hora: 07:13 (04:13 UTC)

Pronòstic

L'informe es va fer fa 2 hores i 13 minuts, a les 02:00 UTC
Pronòstic vàlid del 22 a les 03 UTC al 22 a les 12 UTC
Vent 6 kt del Nord/Nord-Oest
Visibilitat 10 km o més
Cel ennuvolat a una alçada de 4000 ft

TAF: UUOB 220200Z 2203/2212 34003MPS 9999 BKN040

Observacions i pronòstics meteorològics de més de 4000 aeroports (METAR i TAF).

Les estacions disponibles són els punts grocs i vermells al mapa.

Posi el ratolí al punt desitjat per veure el nom de l'estació.

Feu clic per veure les observacions i els pronòstics meteorològics.

Per canviar el mapa: feu clic els botons verds amb una creu de color negre per apropar; al botó verd amb un guió per allunyar la imatge; o en les fletxes verdes per a mapes adjacents.


METAR-TAF: